Time;durP1;ratioP1;P1;durP2;ratioP2;P2;SDS_P1;SDS_P2;PMS_P1;PMS_P2;Temp;Humidity;BMP_temperature;BMP_pressure;BME280_temperature;BME280_humidity;BME280_pressure;Samples;Min_cycle;Max_cycle;Signal;HPM_P1;HPM_P2
2021/06/29 00:02:23;;;;;;;3.85;3.33;;;17.10;99.90;;;17.55;100.00;94993.00;2177591;56;26172;-51
2021/06/29 00:05:11;;;;;;;4.55;3.12;;;17.10;99.90;;;17.57;100.00;94992.00;2384897;55;26783;-52
2021/06/29 00:07:58;;;;;;;6.62;3.70;;;17.20;99.90;;;17.70;100.00;94998.00;2170589;55;26721;-51
2021/06/29 00:13:41;;;;;;;4.43;3.00;;;17.10;99.90;;;17.65;100.00;94990.00;2372286;55;34344;-52
2021/06/29 00:16:28;;;;;;;5.07;3.42;;;17.00;99.90;;;17.47;100.00;95016.00;2141719;56;26557;-51
2021/06/29 00:19:14;;;;;;;3.70;3.40;;;17.10;99.90;;;17.60;100.00;95029.00;2151222;56;26708;-51
2021/06/29 00:22:01;;;;;;;5.10;3.20;;;17.10;99.90;;;17.47;100.00;95027.00;2369407;56;26185;-52
2021/06/29 00:24:47;;;;;;;4.45;3.35;;;17.00;99.90;;;17.46;100.00;95020.00;2154348;56;26719;-52
2021/06/29 00:27:33;;;;;;;3.47;3.20;;;16.90;99.90;;;17.40;100.00;95021.00;2377794;57;27315;-51
2021/06/29 00:30:21;;;;;;;3.65;3.05;;;16.90;99.90;;;17.46;100.00;95022.00;2154285;57;26609;-51
2021/06/29 00:33:08;;;;;;;3.25;2.92;;;16.90;99.90;;;17.41;100.00;95025.00;2349162;57;26691;-51
2021/06/29 00:35:55;;;;;;;4.18;3.05;;;16.90;99.90;;;17.43;100.00;95029.00;2139824;57;26695;-51
2021/06/29 00:38:41;;;;;;;5.00;3.60;;;16.80;99.90;;;17.47;100.00;95019.00;2364784;56;26717;-51
2021/06/29 00:41:28;;;;;;;4.93;3.50;;;17.00;99.90;;;17.54;100.00;95022.00;2163724;57;26747;-51
2021/06/29 00:44:21;;;;;;;3.67;3.05;;;16.90;99.90;;;17.31;100.00;95013.00;2372688;56;26865;-51
2021/06/29 00:50:11;;;;;;;3.90;3.42;;;16.90;99.90;;;17.47;100.00;94979.00;2413986;55;33646;-51
2021/06/29 00:52:57;;;;;;;4.40;3.42;;;16.80;99.90;;;17.35;100.00;95006.00;2186352;57;26856;-51
2021/06/29 00:55:45;;;;;;;3.58;3.28;;;16.80;99.90;;;17.35;100.00;95003.00;2402106;56;27250;-51
2021/06/29 01:01:28;;;;;;;5.70;3.35;;;16.90;99.90;;;17.52;100.00;94987.00;2356669;56;34522;-51
2021/06/29 01:04:14;;;;;;;3.65;3.10;;;17.00;99.90;;;17.57;100.00;95006.00;2380256;56;26870;-51
2021/06/29 01:09:58;;;;;;;3.75;3.35;;;17.00;99.90;;;17.75;100.00;94998.00;2416799;55;33748;-50
2021/06/29 01:12:44;;;;;;;3.67;3.00;;;17.00;99.90;;;17.53;100.00;95018.00;2177520;56;27065;-51
2021/06/29 01:15:32;;;;;;;5.68;2.97;;;17.00;99.90;;;17.46;100.00;95017.00;2403258;55;26706;-51
2021/06/29 01:18:18;;;;;;;3.37;2.97;;;17.00;99.90;;;17.56;100.00;95015.00;2186686;55;26760;-52
2021/06/29 01:21:06;;;;;;;4.32;3.12;;;17.00;99.90;;;17.54;100.00;95025.00;2401844;55;26849;-51
2021/06/29 01:23:55;;;;;;;3.92;3.25;;;17.10;99.90;;;17.54;100.00;95025.00;2181414;56;26514;-52
2021/06/29 01:26:46;;;;;;;5.65;3.20;;;17.00;99.90;;;17.46;100.00;95025.00;2404596;55;26103;-51
2021/06/29 01:29:44;;;;;;;3.75;3.40;;;17.00;99.90;;;17.43;100.00;95034.00;2209262;55;26737;-51
2021/06/29 01:32:30;;;;;;;3.45;3.15;;;16.90;99.90;;;17.42;100.00;95048.00;2438164;55;26150;-51
2021/06/29 01:35:16;;;;;;;4.43;3.50;;;17.00;99.90;;;17.48;100.00;95041.00;2215593;56;26818;-52
2021/06/29 01:38:03;;;;;;;3.92;3.20;;;17.00;99.90;;;17.56;100.00;95049.00;2439113;55;27310;-51
2021/06/29 01:40:50;;;;;;;4.15;3.20;;;17.00;99.90;;;17.50;100.00;95042.00;2216083;55;27208;-51
2021/06/29 01:43:41;;;;;;;3.45;3.00;;;17.00;99.90;;;17.48;100.00;95047.00;2215163;55;26606;-51
2021/06/29 01:46:31;;;;;;;3.97;3.15;;;17.00;99.90;;;17.56;100.00;95052.00;2213992;55;27259;-52
2021/06/29 01:55:14;;;;;;;3.55;3.25;;;17.10;99.90;;;17.74;100.00;95021.00;2453835;53;33801;-52
2021/06/29 01:58:00;;;;;;;3.95;3.50;;;17.10;99.90;;;17.53;100.00;95036.00;2417052;54;26758;-50
2021/06/29 02:00:47;;;;;;;4.85;3.30;;;17.10;99.90;;;17.63;100.00;95042.00;2181192;56;26175;-51
2021/06/29 02:03:40;;;;;;;4.57;3.30;;;17.10;99.90;;;17.55;100.00;95040.00;2173972;56;26807;-52
2021/06/29 02:06:27;;;;;;;4.45;3.40;;;17.00;99.90;;;17.51;100.00;95041.00;2425134;55;26947;-51
2021/06/29 02:09:13;;;;;;;3.60;3.30;;;17.10;99.90;;;17.50;100.00;95037.00;2206221;55;26886;-51
2021/06/29 02:14:57;;;;;;;4.00;3.60;;;16.90;99.90;;;17.30;100.00;95006.00;2428306;55;34504;-50
2021/06/29 02:17:44;;;;;;;3.60;3.30;;;16.80;99.90;;;17.17;100.00;95018.00;2195621;56;26753;-51
2021/06/29 02:20:30;;;;;;;4.78;3.67;;;16.80;99.90;;;17.22;100.00;95024.00;2418120;55;27302;-51
2021/06/29 02:23:16;;;;;;;3.90;3.60;;;16.80;99.90;;;17.20;100.00;95018.00;2204563;56;27150;-51
2021/06/29 02:26:03;;;;;;;4.75;3.50;;;16.80;99.90;;;17.25;100.00;95019.00;2206695;56;26667;-50
2021/06/29 02:28:49;;;;;;;4.32;3.90;;;16.80;99.90;;;17.33;100.00;95024.00;2449666;55;27288;-51
2021/06/29 02:31:36;;;;;;;5.12;4.00;;;16.80;99.90;;;17.22;100.00;95029.00;2228679;55;26787;-51
2021/06/29 02:34:22;;;;;;;4.35;3.95;;;16.70;99.90;;;17.13;100.00;95041.00;2226865;55;27391;-50
2021/06/29 02:37:09;;;;;;;3.78;3.47;;;16.70;99.90;;;17.13;100.00;95037.00;2226293;55;26860;-51
2021/06/29 02:39:55;;;;;;;3.97;3.42;;;16.70;99.90;;;17.15;100.00;95042.00;2234831;55;27112;-51
2021/06/29 02:42:42;;;;;;;4.47;4.07;;;16.70;99.90;;;17.20;100.00;95042.00;2234217;55;26746;-51
2021/06/29 02:45:29;;;;;;;4.20;3.80;;;16.70;99.90;;;17.24;100.00;95038.00;2235011;55;26706;-51
2021/06/29 02:48:15;;;;;;;5.32;3.95;;;16.70;99.90;;;17.17;100.00;95030.00;2216571;55;26720;-51
2021/06/29 02:51:01;;;;;;;4.20;3.80;;;16.70;99.90;;;17.14;100.00;95022.00;2442550;55;26913;-51
2021/06/29 02:53:48;;;;;;;3.90;3.50;;;16.70;99.90;;;17.17;100.00;95022.00;2219518;56;26609;-51
2021/06/29 02:56:37;;;;;;;4.05;3.65;;;16.70;99.90;;;17.16;100.00;95022.00;2463134;55;27602;-52
2021/06/29 03:02:22;;;;;;;4.30;3.90;;;16.60;99.90;;;17.19;100.00;95007.00;2380393;55;34656;-51
2021/06/29 03:05:12;;;;;;;4.43;4.03;;;16.60;99.90;;;17.04;100.00;95030.00;2344365;56;26620;-51
2021/06/29 03:10:56;;;;;;;4.40;4.07;;;16.60;99.90;;;17.11;100.00;95020.00;2342672;56;33918;-51
2021/06/29 03:13:43;;;;;;;6.25;4.07;;;16.60;99.90;;;16.93;100.00;95041.00;2302628;58;26699;-51
2021/06/29 03:16:29;;;;;;;4.87;4.28;;;16.50;99.90;;;17.00;100.00;95044.00;2114096;59;26646;-51
2021/06/29 03:19:15;;;;;;;5.53;4.07;;;16.60;99.90;;;17.03;100.00;95041.00;2112222;58;27348;-51
2021/06/29 03:22:03;;;;;;;5.70;4.20;;;16.50;99.90;;;16.90;100.00;95047.00;2309618;58;26634;-51
2021/06/29 03:24:50;;;;;;;4.80;4.30;;;16.50;99.90;;;16.92;100.00;95040.00;2103210;58;26889;-52
2021/06/29 03:30:34;;;;;;;5.72;4.30;;;16.40;99.90;;;17.04;100.00;95011.00;2360302;55;34360;-52
2021/06/29 03:33:21;;;;;;;5.15;4.53;;;16.40;99.90;;;16.90;100.00;95034.00;2159235;57;26978;-51
2021/06/29 03:36:09;;;;;;;4.80;4.40;;;16.40;99.90;;;16.91;100.00;95035.00;2363822;56;27364;-52
2021/06/29 03:38:56;;;;;;;6.18;4.07;;;16.40;99.90;;;16.92;100.00;95036.00;2210534;57;26667;-52
2021/06/29 03:44:38;;;;;;;5.57;3.90;;;16.30;99.90;;;16.79;100.00;95017.00;2449207;53;33846;-52
2021/06/29 03:47:24;;;;;;;5.95;4.95;;;16.20;99.90;;;16.70;100.00;95039.00;2457890;54;26237;-52
2021/06/29 03:53:09;;;;;;;5.50;4.82;;;16.30;99.90;;;16.89;100.00;95016.00;2409263;55;33774;-52
2021/06/29 03:55:56;;;;;;;8.75;4.90;;;16.30;99.90;;;16.71;100.00;95042.00;2203061;55;26137;-51
2021/06/29 03:58:42;;;;;;;9.32;4.75;;;16.20;99.90;;;16.69;100.00;95029.00;2437807;55;26605;-52
2021/06/29 04:04:25;;;;;;;6.18;4.62;;;16.20;99.90;;;16.86;100.00;95000.00;2478313;53;33957;-51
2021/06/29 04:07:12;;;;;;;4.82;4.43;;;16.10;99.90;;;16.55;100.00;95027.00;2259957;53;26703;-51
2021/06/29 04:12:54;;;;;;;4.97;4.53;;;16.10;99.90;;;16.68;100.00;94999.00;2384593;55;34387;-52
2021/06/29 04:15:40;;;;;;;5.20;4.70;;;16.10;99.90;;;16.60;100.00;95014.00;2158305;58;26776;-51
2021/06/29 04:21:22;;;;;;;7.37;4.60;;;16.10;99.90;;;16.78;100.00;94993.00;2446412;53;33582;-51
2021/06/29 04:24:09;;;;;;;5.62;4.60;;;16.30;99.90;;;16.80;100.00;95023.00;2431347;54;26625;-52
2021/06/29 04:26:56;;;;;;;5.00;4.28;;;16.30;99.90;;;16.85;100.00;95025.00;2213899;55;26862;-51
2021/06/29 04:29:42;;;;;;;4.75;4.35;;;16.40;99.90;;;16.99;100.00;95040.00;2448095;55;26591;-52
2021/06/29 04:35:25;;;;;;;3.87;3.58;;;16.60;99.90;;;17.33;100.00;95013.00;2365366;55;34712;-51
2021/06/29 04:41:08;;;;;;;5.07;3.90;;;16.80;99.90;;;17.44;100.00;95008.00;2374796;55;35194;-52
2021/06/29 04:43:54;;;;;;;3.90;3.50;;;16.90;99.90;;;17.34;100.00;95023.00;2146407;57;27270;-52
2021/06/29 04:46:41;;;;;;;5.22;3.47;;;16.90;99.90;;;17.38;100.00;95019.00;2365564;56;26747;-51
2021/06/29 04:49:28;;;;;;;3.85;3.15;;;16.90;99.90;;;17.43;100.00;95023.00;2150808;56;26102;-51
2021/06/29 04:52:15;;;;;;;3.80;3.50;;;16.90;99.90;;;17.40;100.00;95026.00;2151707;55;26655;-51
2021/06/29 04:55:01;;;;;;;4.30;3.30;;;17.00;99.90;;;17.51;100.00;95031.00;2364098;56;26764;-52
2021/06/29 04:57:48;;;;;;;5.25;3.80;;;17.10;99.90;;;17.64;100.00;95030.00;2153741;55;26603;-52
2021/06/29 05:03:32;;;;;;;6.35;3.45;;;16.90;99.90;;;17.56;100.00;95021.00;2400039;54;34129;-51
2021/06/29 05:06:19;;;;;;;3.58;3.25;;;17.00;99.90;;;17.56;100.00;95037.00;2170007;56;26995;-51
2021/06/29 05:09:06;;;;;;;5.47;3.20;;;17.00;99.90;;;17.60;100.00;95041.00;2399261;55;26728;-51
2021/06/29 05:11:52;;;;;;;4.53;3.58;;;17.00;99.90;;;17.49;100.00;95039.00;2131466;56;27963;-53
2021/06/29 05:14:38;;;;;;;4.62;2.83;;;17.00;99.90;;;17.55;100.00;95045.00;2136845;56;26120;-52
2021/06/29 05:17:25;;;;;;;3.87;3.35;;;17.00;99.90;;;17.62;100.00;95051.00;2407945;55;26754;-51
2021/06/29 05:23:09;;;;;;;4.60;4.12;;;16.80;99.90;;;17.27;100.00;95041.00;2452559;54;33576;-51
2021/06/29 05:25:56;;;;;;;5.32;4.20;;;16.70;99.90;;;17.10;100.00;95072.00;2462884;55;26832;-52
2021/06/29 05:31:40;;;;;;;5.47;4.87;;;16.60;99.90;;;17.15;100.00;95072.00;2380848;55;33931;-52
2021/06/29 05:34:26;;;;;;;5.40;4.60;;;16.60;99.90;;;17.06;100.00;95089.00;2151272;56;26675;-52
2021/06/29 05:37:13;;;;;;;7.50;4.62;;;16.50;99.90;;;17.04;100.00;95102.00;2369490;56;26915;-51
2021/06/29 05:39:59;;;;;;;4.40;4.00;;;16.50;99.90;;;16.96;100.00;95104.00;2147315;56;27003;-51
2021/06/29 05:42:45;;;;;;;7.60;4.07;;;16.30;99.90;;;16.73;100.00;95104.00;2357230;56;26717;-51
2021/06/29 05:45:32;;;;;;;4.50;3.80;;;16.30;99.90;;;16.71;100.00;95109.00;2112330;58;27069;-52
2021/06/29 05:48:19;;;;;;;5.32;3.78;;;16.20;99.90;;;16.61;100.00;95098.00;2125436;56;26878;-51
2021/06/29 05:51:06;;;;;;;4.32;3.40;;;16.10;99.90;;;16.58;100.00;95085.00;2353653;57;26815;-52
2021/06/29 05:53:52;;;;;;;5.82;3.60;;;16.10;99.90;;;16.54;100.00;95084.00;2161701;57;27473;-51
2021/06/29 05:56:40;;;;;;;4.40;3.60;;;16.20;99.90;;;16.61;100.00;95101.00;2373552;57;26802;-51
2021/06/29 05:59:26;;;;;;;5.30;3.75;;;16.10;99.90;;;16.55;100.00;95089.00;2161601;57;26544;-52
2021/06/29 06:02:13;;;;;;;5.70;3.87;;;16.20;99.90;;;16.61;100.00;95069.00;2373590;56;26813;-52
2021/06/29 06:04:59;;;;;;;4.28;3.87;;;16.20;99.90;;;16.75;100.00;95100.00;2162213;57;26652;-52
2021/06/29 06:10:43;;;;;;;4.40;3.90;;;16.30;99.90;;;16.72;100.00;95087.00;2394814;55;33785;-52
2021/06/29 06:13:30;;;;;;;5.80;3.97;;;16.30;99.90;;;16.74;100.00;95122.00;2173988;56;26895;-52
2021/06/29 06:16:16;;;;;;;4.15;3.65;;;16.30;99.90;;;16.62;100.00;95123.00;2160919;56;26872;-52
2021/06/29 06:19:02;;;;;;;8.10;3.53;;;16.30;99.90;;;16.72;100.00;95121.00;2388862;55;26731;-51
2021/06/29 06:21:49;;;;;;;3.67;3.37;;;16.30;99.90;;;16.68;100.00;95113.00;2172778;56;27363;-51
2021/06/29 06:24:35;;;;;;;4.80;3.80;;;16.30;99.90;;;16.73;100.00;95116.00;2391481;55;26605;-52
2021/06/29 06:27:21;;;;;;;4.00;3.70;;;16.40;99.90;;;16.96;100.00;95104.00;2197210;56;26754;-51
2021/06/29 06:30:11;;;;;;;5.05;3.40;;;16.50;99.90;;;17.03;100.00;95094.00;2204990;56;27202;-51
2021/06/29 06:32:57;;;;;;;5.75;3.80;;;16.70;99.90;;;17.21;100.00;95084.00;2210093;56;26697;-52
2021/06/29 06:35:44;;;;;;;3.83;3.53;;;17.00;99.90;;;17.67;100.00;95070.00;2210359;56;26833;-51
2021/06/29 06:38:30;;;;;;;4.25;3.85;;;17.70;99.90;;;18.65;100.00;95050.00;2202671;56;26130;-51
2021/06/29 06:44:12;;;;;;;3.55;2.97;;;18.40;99.90;;;20.65;100.00;95005.00;2415194;55;33824;-51
2021/06/29 06:46:59;;;;;;;3.00;2.33;;;19.30;99.90;;;20.52;100.00;95008.00;2422810;55;27450;-51
2021/06/29 06:52:43;;;;;;;2.40;2.20;;;20.30;99.90;;;22.11;100.00;94990.00;2412977;54;34228;-52
2021/06/29 06:55:30;;;;;;;2.60;2.10;;;20.90;99.90;;;22.37;100.00;94987.00;2184445;56;26116;-52
2021/06/29 06:58:16;;;;;;;2.50;2.30;;;21.90;99.90;;;23.81;100.00;94982.00;2400487;55;26111;-52
2021/06/29 07:01:03;;;;;;;2.42;2.03;;;23.40;99.90;;;26.40;100.00;94970.00;2388512;55;27171;-51
2021/06/29 07:03:49;;;;;;;2.67;1.85;;;24.40;99.90;;;26.70;100.00;94961.00;2172306;56;27296;-52
2021/06/29 07:06:35;;;;;;;2.28;2.03;;;23.90;99.90;;;25.44;100.00;94961.00;2420385;55;26545;-51
2021/06/29 07:09:22;;;;;;;2.60;1.90;;;24.90;99.90;;;27.44;100.00;94952.00;2196546;55;26732;-51
2021/06/29 07:12:11;;;;;;;2.78;1.87;;;25.50;99.90;;;28.11;100.00;94938.00;2196505;55;26892;-52
2021/06/29 07:14:58;;;;;;;1.92;1.70;;;26.30;99.90;;;28.92;100.00;94929.00;2421475;55;26735;-53
2021/06/29 07:17:44;;;;;;;1.90;1.67;;;26.40;99.90;;;29.02;100.00;94929.00;2200851;55;26884;-53
2021/06/29 07:20:31;;;;;;;2.03;1.52;;;27.30;99.90;;;30.67;100.00;94907.00;2200389;55;26813;-52
2021/06/29 07:23:18;;;;;;;2.28;1.40;;;27.90;99.90;;;30.39;100.00;94914.00;2200664;55;25541;-50
2021/06/29 07:31:58;;;;;;;1.45;1.30;;;29.20;99.90;;;31.74;90.15;94891.00;2400001;54;33166;-52
2021/06/29 07:34:44;;;;;;;1.62;1.40;;;28.80;99.90;;;30.29;89.92;94888.00;2142248;56;26974;-52
2021/06/29 07:37:30;;;;;;;1.30;1.20;;;28.50;99.90;;;30.46;97.41;94880.00;2141716;57;26614;-52
2021/06/29 07:40:17;;;;;;;1.83;1.37;;;28.40;99.90;;;31.02;100.00;94884.00;2148750;56;27428;-52
2021/06/29 07:43:04;;;;;;;1.52;1.30;;;28.70;99.90;;;31.09;96.84;94879.00;2134967;57;26212;-52
2021/06/29 07:51:43;;;;;;;1.83;1.40;;;29.30;99.90;;;31.15;100.00;94862.00;2428169;54;34050;-52
2021/06/29 07:54:29;;;;;;;3.05;1.40;;;29.30;99.90;;;31.87;89.56;94856.00;2198964;56;25552;-52
2021/06/29 07:57:15;;;;;;;1.75;1.27;;;29.70;99.90;;;31.42;94.58;94856.00;2200573;55;25695;-52
2021/06/29 08:00:03;;;;;;;3.35;1.23;;;29.00;99.90;;;31.59;85.34;94856.00;2460773;54;25639;-50
2021/06/29 08:02:49;;;;;;;1.42;1.33;;;29.60;99.90;;;32.06;90.11;94843.00;2225542;55;27732;-50
2021/06/29 08:08:34;;;;;;;1.80;1.20;;;29.90;99.90;;;31.01;77.25;94818.00;2361245;55;34000;-51
2021/06/29 08:11:21;;;;;;;3.03;1.12;;;29.10;99.90;;;30.56;79.12;94811.00;2132333;56;27028;-52
2021/06/29 08:17:04;;;;;;;1.83;1.20;;;29.40;99.90;;;31.37;73.86;94783.00;2402059;55;34159;-52
2021/06/29 08:19:51;;;;;;;1.58;1.35;;;29.80;99.90;;;32.68;67.34;94780.00;2377436;56;25761;-50
2021/06/29 08:22:38;;;;;;;2.17;1.30;;;30.40;99.90;;;33.78;61.12;94786.00;2141160;56;26444;-50
2021/06/29 08:25:24;;;;;;;2.12;1.17;;;31.00;99.90;;;33.29;64.01;94789.00;2386791;55;27063;-50
2021/06/29 08:28:11;;;;;;;1.90;1.30;;;31.60;99.90;;;33.85;55.98;94781.00;2151750;57;25116;-50
2021/06/29 08:30:58;;;;;;;1.62;1.30;;;31.40;99.90;;;33.59;56.05;94782.00;2363560;55;25758;-50
2021/06/29 08:33:44;;;;;;;1.23;1.12;;;31.70;99.90;;;34.45;58.85;94777.00;2164215;56;25854;-50
2021/06/29 08:36:31;;;;;;;1.30;1.20;;;31.80;99.90;;;34.25;63.96;94761.00;2176567;56;26289;-49
2021/06/29 08:42:13;;;;;;;2.28;1.30;;;31.70;99.90;;;32.05;61.14;94760.00;2351458;55;33190;-52
2021/06/29 08:45:00;;;;;;;1.42;1.20;;;30.70;99.90;;;32.16;59.96;94767.00;2149093;57;25654;-51
2021/06/29 08:47:46;;;;;;;2.87;1.30;;;30.80;99.90;;;32.19;59.35;94756.00;2364427;56;25261;-52
2021/06/29 08:50:33;;;;;;;1.70;1.27;;;30.90;99.90;;;32.41;51.19;94752.00;2383701;56;26830;-51
2021/06/29 08:53:20;;;;;;;2.40;1.30;;;29.20;99.90;;;29.48;86.39;94742.00;2173814;57;26763;-51
2021/06/29 08:56:14;;;;;;;2.47;1.12;;;29.90;99.90;;;31.56;80.00;94738.00;2398748;56;27030;-52
2021/06/29 09:01:59;;;;;;;1.90;1.33;;;30.90;99.90;;;33.88;56.73;94719.00;2328929;57;33426;-52
2021/06/29 09:07:49;;;;;;;1.15;1.00;;;30.40;99.90;;;30.71;59.51;94721.00;2472151;52;33770;-51
2021/06/29 09:10:38;;;;;;;1.75;1.20;;;27.30;99.90;;;27.55;79.74;94721.00;2230172;53;27599;-51
2021/06/29 09:13:25;;;;;;;1.55;1.17;;;26.00;99.90;;;26.49;100.00;94711.00;2477040;53;26775;-50
2021/06/29 09:16:22;;;;;;;1.80;1.10;;;25.70;99.90;;;26.04;100.00;94720.00;2210275;54;26867;-51
2021/06/29 09:19:09;;;;;;;1.58;1.12;;;25.20;99.90;;;25.83;100.00;94708.00;2445658;53;27522;-51
2021/06/29 09:21:55;;;;;;;1.12;1.00;;;26.60;99.90;;;28.29;100.00;94704.00;2257609;54;26794;-51
2021/06/29 09:24:42;;;;;;;1.83;1.25;;;28.40;99.90;;;30.62;90.12;94691.00;2275193;53;27199;-51
2021/06/29 09:27:43;;;;;;;1.20;1.10;;;29.60;99.90;;;31.74;74.04;94692.00;2513514;53;25661;-52
2021/06/29 09:30:35;;;;;;;1.37;1.20;;;30.70;99.90;;;32.61;62.76;94692.00;2286516;53;26182;-50
2021/06/29 09:33:24;;;;;;;1.40;1.30;;;31.70;99.90;;;34.43;50.08;94680.00;2280411;53;25621;-50
2021/06/29 09:36:14;;;;;;;1.30;1.20;;;32.40;99.90;;;34.38;53.27;94661.00;2266328;54;26106;-50
2021/06/29 09:42:04;;;;;;;1.45;1.10;;;32.50;99.90;;;32.85;56.54;94648.00;2432758;54;32996;-52
2021/06/29 09:44:51;;;;;;;1.20;1.10;;;31.10;99.90;;;32.49;49.93;94648.00;2222381;55;26074;-50
2021/06/29 09:50:48;;;;;;;1.25;1.10;;;31.30;99.90;;;34.52;51.17;94637.00;2431749;53;32775;-52
2021/06/29 09:53:39;;;;;;;1.40;1.30;;;31.70;99.90;;;34.53;55.03;94637.00;2410726;55;25200;-50
2021/06/29 09:56:30;;;;;;;1.98;1.30;;;32.60;99.90;;;35.42;45.78;94631.00;2440410;55;25553;-50
2021/06/29 09:59:19;;;;;;;1.33;1.23;;;33.10;99.90;;;35.61;46.55;94616.00;2209917;55;25227;-50
2021/06/29 10:02:07;;;;;;;1.20;1.10;;;33.20;99.90;;;35.12;46.05;94615.00;2438872;55;25095;-50
2021/06/29 10:05:22;;;;;;;1.37;1.10;;;32.50;99.90;;;33.82;47.20;94609.00;2440491;55;25785;-50
2021/06/29 10:08:08;;;;;;;1.42;1.20;;;31.60;99.90;;;32.54;50.37;94604.00;2209837;55;25943;-49
2021/06/29 10:11:07;;;;;;;1.48;1.10;;;30.60;99.90;;;31.14;67.35;94589.00;2197156;55;27304;-50
2021/06/29 10:14:01;;;;;;;1.12;1.02;;;31.10;99.90;;;32.46;53.44;94591.00;2190229;55;26473;-50
2021/06/29 10:16:49;;;;;;;1.10;1.00;;;30.40;99.90;;;31.09;65.79;94584.00;2173870;56;25617;-52
2021/06/29 10:19:48;;;;;;;1.37;1.23;;;29.90;99.90;;;30.46;62.46;94569.00;2190596;56;25743;-50
2021/06/29 10:22:35;;;;;;;2.65;1.23;;;29.70;99.90;;;29.97;82.44;94560.00;2165933;56;26978;-50
2021/06/29 10:28:20;;;;;;;0.93;0.90;;;29.90;99.90;;;31.47;67.35;94538.00;2449258;55;32705;-52
2021/06/29 10:31:07;;;;;;;1.77;1.60;;;29.40;99.90;;;30.26;66.72;94536.00;2190232;55;26948;-51
2021/06/29 10:33:56;;;;;;;2.67;1.30;;;29.20;99.90;;;29.74;78.86;94519.00;2418173;55;25880;-52
2021/06/29 10:36:46;;;;;;;1.37;1.17;;;29.10;99.90;;;29.75;83.36;94531.00;2178830;55;26093;-52
2021/06/29 10:42:31;;;;;;;1.42;1.20;;;29.60;99.90;;;30.56;69.96;94502.00;2407719;54;33560;-52
2021/06/29 10:45:18;;;;;;;1.75;1.10;;;29.10;99.90;;;29.83;80.84;94493.00;2157429;56;27454;-52
2021/06/29 10:48:20;;;;;;;1.30;1.20;;;28.80;99.90;;;29.30;83.21;94494.00;2379747;56;27160;-52
2021/06/29 10:51:09;;;;;;;1.10;1.00;;;29.40;99.90;;;30.55;80.12;94493.00;2178947;55;26195;-51
2021/06/29 10:53:55;;;;;;;2.75;1.10;;;29.40;99.90;;;30.25;82.52;94483.00;2184943;56;25679;-52
2021/06/29 10:56:55;;;;;;;1.15;1.05;;;29.10;99.90;;;29.77;87.67;94475.00;2184339;56;25099;-52
2021/06/29 10:59:46;;;;;;;2.30;1.17;;;28.80;99.90;;;29.12;91.97;94475.00;2183320;55;25115;-51
2021/06/29 11:05:32;;;;;;;1.25;1.10;;;29.00;99.90;;;29.56;82.39;94463.00;2377882;55;34435;-51
2021/06/29 11:11:16;;;;;;;1.55;1.40;;;27.50;99.90;;;28.25;100.00;94453.00;2396717;55;32864;-52
2021/06/29 11:14:02;;;;;;;1.37;1.27;;;27.40;99.90;;;27.96;99.01;94450.00;2157705;57;26362;-52
2021/06/29 11:16:54;;;;;;;1.65;1.10;;;27.60;99.90;;;28.05;99.39;94445.00;2355471;56;27228;-51
2021/06/29 11:23:10;;;;;;;1.35;1.25;;;28.40;99.90;;;28.84;98.37;94436.00;2426879;55;33717;-51
2021/06/29 11:26:00;;;;;;;3.35;1.30;;;29.10;99.90;;;29.71;95.30;94432.00;2375574;57;27361;-51
2021/06/29 11:28:49;;;;;;;1.40;1.30;;;28.40;99.90;;;28.63;94.46;94424.00;2162549;57;26861;-51
2021/06/29 11:31:36;;;;;;;1.52;1.20;;;28.60;99.90;;;28.97;100.00;94418.00;2402073;56;27243;-51
2021/06/29 11:34:28;;;;;;;1.80;1.50;;;29.00;99.90;;;29.77;100.00;94417.00;2175641;56;27193;-51
2021/06/29 11:37:14;;;;;;;1.42;1.33;;;28.50;99.90;;;28.67;98.50;94413.00;2367465;55;27037;-51
2021/06/29 11:40:01;;;;;;;2.15;1.60;;;28.00;99.90;;;28.09;99.98;94413.00;2157213;56;26213;-52
2021/06/29 11:43:13;;;;;;;2.40;1.60;;;27.60;99.90;;;27.92;100.00;94411.00;2164248;56;27308;-51
2021/06/29 11:46:00;;;;;;;2.90;1.33;;;27.50;99.90;;;27.50;100.00;94392.00;2381960;56;26727;-52
2021/06/29 11:48:47;;;;;;;1.75;1.40;;;27.50;99.90;;;27.90;100.00;94388.00;2388124;55;26736;-51
2021/06/29 11:51:52;;;;;;;1.37;1.27;;;27.70;99.90;;;28.35;100.00;94374.00;2368828;55;26329;-52
2021/06/29 11:54:43;;;;;;;2.05;1.30;;;27.30;99.90;;;27.47;100.00;94380.00;2363678;55;27185;-51
2021/06/29 12:03:25;;;;;;;1.60;1.50;;;26.80;99.90;;;27.41;100.00;94357.00;2351683;55;35053;-52
2021/06/29 12:09:26;;;;;;;1.85;1.50;;;27.20;99.90;;;27.52;100.00;94331.00;2407585;54;33031;-51
2021/06/29 12:12:23;;;;;;;3.85;1.60;;;27.10;99.90;;;27.23;100.00;94329.00;2421411;55;27105;-51
2021/06/29 12:15:17;;;;;;;2.12;1.42;;;26.70;99.90;;;26.88;100.00;94312.00;2182340;55;26699;-51
2021/06/29 12:21:06;;;;;;;1.37;1.27;;;27.70;99.90;;;28.87;100.00;94311.00;2389775;54;34444;-52
2021/06/29 12:23:53;;;;;;;2.08;1.60;;;28.50;99.90;;;29.08;100.00;94311.00;2156245;56;27287;-51
2021/06/29 12:26:39;;;;;;;1.65;1.30;;;28.90;99.90;;;29.47;100.00;94305.00;2359718;55;27019;-52
2021/06/29 12:29:29;;;;;;;2.33;1.60;;;29.10;99.90;;;29.49;100.00;94300.00;2125371;56;27428;-51
2021/06/29 12:32:18;;;;;;;1.95;1.80;;;29.20;99.90;;;29.63;100.00;94298.00;2343671;56;27180;-52
2021/06/29 12:35:12;;;;;;;1.60;1.50;;;28.90;99.90;;;28.91;100.00;94290.00;2153448;56;25207;-51
2021/06/29 12:38:02;;;;;;;1.90;1.40;;;28.70;99.90;;;28.47;100.00;94279.00;2145776;57;25802;-51
2021/06/29 12:40:52;;;;;;;1.55;1.45;;;28.50;99.90;;;28.48;100.00;94267.00;2141325;57;26869;-52
2021/06/29 12:43:41;;;;;;;1.90;1.60;;;28.50;99.90;;;28.26;100.00;94274.00;2166192;56;27426;-52
2021/06/29 12:46:31;;;;;;;1.60;1.50;;;28.20;99.90;;;28.16;100.00;94260.00;2401871;55;26192;-51
2021/06/29 12:49:20;;;;;;;2.17;1.50;;;28.00;99.90;;;28.08;100.00;94248.00;2205550;57;26728;-51
2021/06/29 12:52:11;;;;;;;2.62;1.33;;;28.00;99.90;;;27.87;100.00;94241.00;2432298;55;26732;-51
2021/06/29 12:58:07;;;;;;;1.90;1.60;;;27.80;99.90;;;27.99;100.00;94239.00;2390266;55;33806;-52
2021/06/29 13:00:54;;;;;;;2.97;1.60;;;27.00;99.90;;;26.94;100.00;94231.00;2399121;55;27747;-56
2021/06/29 13:03:42;;;;;;;3.00;1.75;;;26.50;99.90;;;26.34;100.00;94224.00;2186686;57;26168;-51
2021/06/29 13:06:28;;;;;;;1.70;1.50;;;26.70;99.90;;;26.86;100.00;94226.00;2189938;55;26825;-52
2021/06/29 13:09:17;;;;;;;2.65;1.77;;;26.30;99.90;;;26.50;100.00;94232.00;2431469;55;26676;-51
2021/06/29 13:12:08;;;;;;;1.58;1.48;;;25.80;99.90;;;25.68;100.00;94213.00;2207589;56;26881;-51
2021/06/29 13:14:58;;;;;;;2.45;1.80;;;25.50;99.90;;;25.65;100.00;94214.00;2211894;56;26888;-51
2021/06/29 13:17:49;;;;;;;1.75;1.65;;;25.70;99.90;;;25.88;100.00;94208.00;2436890;55;26714;-50
2021/06/29 13:20:36;;;;;;;3.78;1.60;;;26.10;99.90;;;26.66;100.00;94203.00;2213152;56;27358;-51
2021/06/29 13:23:23;;;;;;;1.35;1.25;;;26.30;99.90;;;26.40;100.00;94191.00;2209142;56;26900;-50
2021/06/29 13:26:09;;;;;;;2.35;1.60;;;25.90;99.90;;;25.99;100.00;94175.00;2420065;55;26692;-50
2021/06/29 13:28:58;;;;;;;1.50;1.40;;;26.20;99.90;;;26.39;100.00;94167.00;2198082;56;26685;-51
2021/06/29 13:31:45;;;;;;;1.77;1.67;;;26.70;99.90;;;27.21;100.00;94159.00;2421194;55;26806;-51
2021/06/29 13:34:34;;;;;;;2.72;1.67;;;27.20;99.90;;;27.66;100.00;94172.00;2198438;56;26676;-51
2021/06/29 13:37:24;;;;;;;2.12;1.92;;;27.10;99.90;;;27.33;100.00;94195.00;2407944;55;26970;-51
2021/06/29 13:40:20;;;;;;;1.60;1.50;;;26.50;99.90;;;26.55;100.00;94199.00;2194308;55;27094;-51
2021/06/29 13:43:12;;;;;;;1.90;1.80;;;25.90;99.90;;;26.00;100.00;94193.00;2195399;56;26819;-51
2021/06/29 13:46:01;;;;;;;2.05;1.60;;;25.40;99.90;;;25.63;100.00;94203.00;2416380;55;26718;-51
2021/06/29 13:48:47;;;;;;;1.90;1.77;;;25.20;99.90;;;25.36;100.00;94201.00;2195448;56;26747;-51
2021/06/29 13:51:33;;;;;;;2.20;1.87;;;24.90;99.90;;;25.02;100.00;94201.00;2419348;55;26635;-52
2021/06/29 13:54:23;;;;;;;1.60;1.50;;;24.70;99.90;;;25.01;100.00;94210.00;2197733;55;26697;-51